sensor_id;sensor_type;location;lat;lon;timestamp;pressure;altitude;pressure_sealevel;temperature
24278;BMP280;12394;42.692;23.314;2023-06-26T00:01:50;94810.50;;;20.20
24278;BMP280;12394;42.692;23.314;2023-06-26T00:04:15;94812.84;;;20.18
24278;BMP280;12394;42.692;23.314;2023-06-26T00:06:40;94801.41;;;20.12
24278;BMP280;12394;42.692;23.314;2023-06-26T00:09:07;94810.38;;;20.15
24278;BMP280;12394;42.692;23.314;2023-06-26T00:11:33;94807.28;;;20.16
24278;BMP280;12394;42.692;23.314;2023-06-26T00:13:59;94808.50;;;20.06
24278;BMP280;12394;42.692;23.314;2023-06-26T00:16:26;94795.09;;;20.01
24278;BMP280;12394;42.692;23.314;2023-06-26T00:18:52;94811.56;;;20.14
24278;BMP280;12394;42.692;23.314;2023-06-26T00:21:17;94807.53;;;20.18
24278;BMP280;12394;42.692;23.314;2023-06-26T00:23:44;94806.06;;;20.17
24278;BMP280;12394;42.692;23.314;2023-06-26T00:26:09;94808.72;;;20.17
24278;BMP280;12394;42.692;23.314;2023-06-26T00:28:35;94798.75;;;20.12
24278;BMP280;12394;42.692;23.314;2023-06-26T00:31:00;94801.22;;;20.16
24278;BMP280;12394;42.692;23.314;2023-06-26T00:33:26;94805.22;;;20.11
24278;BMP280;12394;42.692;23.314;2023-06-26T00:35:51;94805.41;;;20.08
24278;BMP280;12394;42.692;23.314;2023-06-26T00:38:17;94804.09;;;20.03
24278;BMP280;12394;42.692;23.314;2023-06-26T00:40:42;94802.00;;;20.07
24278;BMP280;12394;42.692;23.314;2023-06-26T00:43:08;94801.44;;;20.03
24278;BMP280;12394;42.692;23.314;2023-06-26T00:45:34;94785.81;;;19.96
24278;BMP280;12394;42.692;23.314;2023-06-26T00:47:59;94801.75;;;19.96
24278;BMP280;12394;42.692;23.314;2023-06-26T00:50:25;94794.97;;;19.95
24278;BMP280;12394;42.692;23.314;2023-06-26T00:52:51;94794.66;;;20.02
24278;BMP280;12394;42.692;23.314;2023-06-26T00:55:17;94792.59;;;19.97
24278;BMP280;12394;42.692;23.314;2023-06-26T00:57:43;94792.28;;;20.04
24278;BMP280;12394;42.692;23.314;2023-06-26T01:00:11;94785.94;;;20.02
24278;BMP280;12394;42.692;23.314;2023-06-26T01:02:37;94784.91;;;19.99
24278;BMP280;12394;42.692;23.314;2023-06-26T01:05:05;94774.28;;;19.99
24278;BMP280;12394;42.692;23.314;2023-06-26T01:07:32;94764.56;;;19.96
24278;BMP280;12394;42.692;23.314;2023-06-26T01:10:03;94764.19;;;19.88
24278;BMP280;12394;42.692;23.314;2023-06-26T01:12:29;94772.72;;;19.92
24278;BMP280;12394;42.692;23.314;2023-06-26T01:14:55;94765.06;;;19.85
24278;BMP280;12394;42.692;23.314;2023-06-26T01:17:20;94759.06;;;19.76
24278;BMP280;12394;42.692;23.314;2023-06-26T01:19:47;94758.22;;;19.70
24278;BMP280;12394;42.692;23.314;2023-06-26T01:25:21;94764.25;;;19.70
24278;BMP280;12394;42.692;23.314;2023-06-26T01:27:50;94767.53;;;19.65
24278;BMP280;12394;42.692;23.314;2023-06-26T01:30:16;94763.13;;;19.62
24278;BMP280;12394;42.692;23.314;2023-06-26T01:32:44;94758.84;;;19.56
24278;BMP280;12394;42.692;23.314;2023-06-26T01:35:11;94752.97;;;19.51
24278;BMP280;12394;42.692;23.314;2023-06-26T01:37:36;94747.25;;;19.44
24278;BMP280;12394;42.692;23.314;2023-06-26T01:40:02;94748.25;;;19.46
24278;BMP280;12394;42.692;23.314;2023-06-26T01:42:31;94752.66;;;19.40
24278;BMP280;12394;42.692;23.314;2023-06-26T01:44:56;94747.25;;;19.35
24278;BMP280;12394;42.692;23.314;2023-06-26T01:47:25;94754.34;;;19.29
24278;BMP280;12394;42.692;23.314;2023-06-26T01:50:26;94754.63;;;19.22
24278;BMP280;12394;42.692;23.314;2023-06-26T01:55:22;94749.47;;;19.27
24278;BMP280;12394;42.692;23.314;2023-06-26T01:57:52;94745.63;;;19.28
24278;BMP280;12394;42.692;23.314;2023-06-26T02:00:20;94746.25;;;19.14
24278;BMP280;12394;42.692;23.314;2023-06-26T02:02:46;94744.19;;;19.18
24278;BMP280;12394;42.692;23.314;2023-06-26T02:05:13;94744.50;;;19.20
24278;BMP280;12394;42.692;23.314;2023-06-26T02:07:38;94748.00;;;19.26
24278;BMP280;12394;42.692;23.314;2023-06-26T02:10:04;94747.13;;;19.29
24278;BMP280;12394;42.692;23.314;2023-06-26T02:12:30;94743.31;;;19.21
24278;BMP280;12394;42.692;23.314;2023-06-26T02:14:55;94734.78;;;19.08
24278;BMP280;12394;42.692;23.314;2023-06-26T02:17:21;94743.59;;;19.14
24278;BMP280;12394;42.692;23.314;2023-06-26T02:19:46;94738.31;;;19.05
24278;BMP280;12394;42.692;23.314;2023-06-26T02:22:15;94750.97;;;19.10
24278;BMP280;12394;42.692;23.314;2023-06-26T02:24:41;94739.81;;;18.97
24278;BMP280;12394;42.692;23.314;2023-06-26T02:27:06;94739.66;;;18.91
24278;BMP280;12394;42.692;23.314;2023-06-26T02:29:32;94755.13;;;19.02
24278;BMP280;12394;42.692;23.314;2023-06-26T02:31:57;94757.19;;;18.98
24278;BMP280;12394;42.692;23.314;2023-06-26T02:34:23;94741.00;;;18.96
24278;BMP280;12394;42.692;23.314;2023-06-26T02:36:49;94757.06;;;18.92
24278;BMP280;12394;42.692;23.314;2023-06-26T02:39:14;94756.31;;;18.92
24278;BMP280;12394;42.692;23.314;2023-06-26T02:41:40;94749.84;;;18.75
24278;BMP280;12394;42.692;23.314;2023-06-26T02:44:05;94758.22;;;18.91
24278;BMP280;12394;42.692;23.314;2023-06-26T02:46:32;94753.97;;;18.94
24278;BMP280;12394;42.692;23.314;2023-06-26T02:48:58;94757.94;;;18.89
24278;BMP280;12394;42.692;23.314;2023-06-26T02:51:24;94749.22;;;19.07
24278;BMP280;12394;42.692;23.314;2023-06-26T02:53:49;94755.56;;;19.09
24278;BMP280;12394;42.692;23.314;2023-06-26T02:56:15;94758.38;;;19.06
24278;BMP280;12394;42.692;23.314;2023-06-26T02:58:40;94753.06;;;19.06
24278;BMP280;12394;42.692;23.314;2023-06-26T03:01:05;94761.91;;;19.03
24278;BMP280;12394;42.692;23.314;2023-06-26T03:03:31;94754.81;;;19.00
24278;BMP280;12394;42.692;23.314;2023-06-26T03:06:08;94753.97;;;18.94
24278;BMP280;12394;42.692;23.314;2023-06-26T03:08:36;94759.13;;;18.97
24278;BMP280;12394;42.692;23.314;2023-06-26T03:11:02;94746.03;;;18.85
24278;BMP280;12394;42.692;23.314;2023-06-26T03:13:27;94752.66;;;18.89
24278;BMP280;12394;42.692;23.314;2023-06-26T03:15:53;94763.69;;;18.97
24278;BMP280;12394;42.692;23.314;2023-06-26T03:18:18;94753.06;;;18.97
24278;BMP280;12394;42.692;23.314;2023-06-26T03:20:44;94761.59;;;19.01
24278;BMP280;12394;42.692;23.314;2023-06-26T03:23:09;94749.53;;;19.00
24278;BMP280;12394;42.692;23.314;2023-06-26T03:25:34;94757.19;;;18.98
24278;BMP280;12394;42.692;23.314;2023-06-26T03:28:00;94756.16;;;18.95
24278;BMP280;12394;42.692;23.314;2023-06-26T03:30:25;94758.22;;;19.00
24278;BMP280;12394;42.692;23.314;2023-06-26T03:32:50;94762.50;;;18.98
24278;BMP280;12394;42.692;23.314;2023-06-26T03:35:16;94768.81;;;19.00
24278;BMP280;12394;42.692;23.314;2023-06-26T03:37:41;94765.16;;;19.07
24278;BMP280;12394;42.692;23.314;2023-06-26T03:40:07;94773.69;;;19.11
24278;BMP280;12394;42.692;23.314;2023-06-26T03:42:33;94772.78;;;19.05
24278;BMP280;12394;42.692;23.314;2023-06-26T03:44:59;94767.78;;;19.07
24278;BMP280;12394;42.692;23.314;2023-06-26T03:47:24;94762.91;;;19.15
24278;BMP280;12394;42.692;23.314;2023-06-26T03:49:49;94762.63;;;19.03
24278;BMP280;12394;42.692;23.314;2023-06-26T03:52:15;94766.75;;;19.04
24278;BMP280;12394;42.692;23.314;2023-06-26T03:54:40;94769.13;;;19.02
24278;BMP280;12394;42.692;23.314;2023-06-26T03:57:06;94765.41;;;19.18
24278;BMP280;12394;42.692;23.314;2023-06-26T03:59:32;94761.88;;;19.21
24278;BMP280;12394;42.692;23.314;2023-06-26T04:01:57;94758.75;;;19.23
24278;BMP280;12394;42.692;23.314;2023-06-26T04:04:23;94756.81;;;19.32
24278;BMP280;12394;42.692;23.314;2023-06-26T04:06:48;94761.84;;;19.39
24278;BMP280;12394;42.692;23.314;2023-06-26T04:09:14;94760.94;;;19.42
24278;BMP280;12394;42.692;23.314;2023-06-26T04:11:40;94763.28;;;19.40
24278;BMP280;12394;42.692;23.314;2023-06-26T04:14:05;94774.59;;;19.59
24278;BMP280;12394;42.692;23.314;2023-06-26T04:16:31;94761.59;;;19.70
24278;BMP280;12394;42.692;23.314;2023-06-26T04:18:56;94763.75;;;19.81
24278;BMP280;12394;42.692;23.314;2023-06-26T04:21:22;94760.44;;;19.95
24278;BMP280;12394;42.692;23.314;2023-06-26T04:23:50;94763.34;;;20.06
24278;BMP280;12394;42.692;23.314;2023-06-26T04:26:16;94769.63;;;20.18
24278;BMP280;12394;42.692;23.314;2023-06-26T04:28:41;94778.41;;;20.33
24278;BMP280;12394;42.692;23.314;2023-06-26T04:31:07;94764.69;;;20.34
24278;BMP280;12394;42.692;23.314;2023-06-26T04:33:34;94776.09;;;20.50
24278;BMP280;12394;42.692;23.314;2023-06-26T04:36:02;94769.31;;;20.49
24278;BMP280;12394;42.692;23.314;2023-06-26T04:38:29;94780.09;;;20.69
24278;BMP280;12394;42.692;23.314;2023-06-26T04:40:54;94773.38;;;20.59
24278;BMP280;12394;42.692;23.314;2023-06-26T04:43:20;94786.53;;;20.77
24278;BMP280;12394;42.692;23.314;2023-06-26T04:45:45;94791.41;;;20.78
24278;BMP280;12394;42.692;23.314;2023-06-26T04:48:11;94791.66;;;20.80
24278;BMP280;12394;42.692;23.314;2023-06-26T04:50:36;94771.41;;;20.83
24278;BMP280;12394;42.692;23.314;2023-06-26T04:53:02;94784.22;;;20.70
24278;BMP280;12394;42.692;23.314;2023-06-26T04:55:27;94783.31;;;20.73
24278;BMP280;12394;42.692;23.314;2023-06-26T04:57:53;94789.28;;;20.82
24278;BMP280;12394;42.692;23.314;2023-06-26T05:00:19;94787.00;;;20.90
24278;BMP280;12394;42.692;23.314;2023-06-26T05:02:45;94789.50;;;20.94
24278;BMP280;12394;42.692;23.314;2023-06-26T05:05:10;94785.56;;;20.89
24278;BMP280;12394;42.692;23.314;2023-06-26T05:07:37;94776.66;;;20.92
24278;BMP280;12394;42.692;23.314;2023-06-26T05:10:03;94785.72;;;20.85
24278;BMP280;12394;42.692;23.314;2023-06-26T05:12:28;94789.50;;;20.94
24278;BMP280;12394;42.692;23.314;2023-06-26T05:14:54;94795.94;;;21.02
24278;BMP280;12394;42.692;23.314;2023-06-26T05:17:19;94793.66;;;21.09
24278;BMP280;12394;42.692;23.314;2023-06-26T05:19:44;94794.44;;;21.24
24278;BMP280;12394;42.692;23.314;2023-06-26T05:22:12;94797.44;;;21.17
24278;BMP280;12394;42.692;23.314;2023-06-26T05:24:39;94809.56;;;21.18
24278;BMP280;12394;42.692;23.314;2023-06-26T05:27:05;94797.81;;;21.25
24278;BMP280;12394;42.692;23.314;2023-06-26T05:29:31;94794.34;;;21.34
24278;BMP280;12394;42.692;23.314;2023-06-26T05:31:57;94813.06;;;21.54
24278;BMP280;12394;42.692;23.314;2023-06-26T05:34:23;94809.94;;;21.70
24278;BMP280;12394;42.692;23.314;2023-06-26T05:36:55;94813.78;;;21.98
24278;BMP280;12394;42.692;23.314;2023-06-26T05:39:22;94816.88;;;22.11
24278;BMP280;12394;42.692;23.314;2023-06-26T05:41:48;94817.91;;;22.34
24278;BMP280;12394;42.692;23.314;2023-06-26T05:44:13;94809.84;;;22.49
24278;BMP280;12394;42.692;23.314;2023-06-26T05:46:39;94801.19;;;22.34
24278;BMP280;12394;42.692;23.314;2023-06-26T05:49:04;94813.03;;;22.33
24278;BMP280;12394;42.692;23.314;2023-06-26T05:51:30;94813.69;;;22.28
24278;BMP280;12394;42.692;23.314;2023-06-26T05:53:56;94808.06;;;22.05
24278;BMP280;12394;42.692;23.314;2023-06-26T05:56:22;94803.00;;;22.07
24278;BMP280;12394;42.692;23.314;2023-06-26T05:58:49;94817.31;;;22.45
24278;BMP280;12394;42.692;23.314;2023-06-26T06:01:15;94815.31;;;22.40
24278;BMP280;12394;42.692;23.314;2023-06-26T06:03:41;94815.31;;;22.40
24278;BMP280;12394;42.692;23.314;2023-06-26T06:06:06;94818.28;;;22.62
24278;BMP280;12394;42.692;23.314;2023-06-26T06:08:32;94826.94;;;22.97
24278;BMP280;12394;42.692;23.314;2023-06-26T06:10:59;94829.69;;;23.29
24278;BMP280;12394;42.692;23.314;2023-06-26T06:13:24;94819.25;;;23.51
24278;BMP280;12394;42.692;23.314;2023-06-26T06:15:50;94819.31;;;23.62
24278;BMP280;12394;42.692;23.314;2023-06-26T06:18:15;94813.41;;;23.78
24278;BMP280;12394;42.692;23.314;2023-06-26T06:20:40;94820.38;;;24.02
24278;BMP280;12394;42.692;23.314;2023-06-26T06:23:06;94802.25;;;23.80
24278;BMP280;12394;42.692;23.314;2023-06-26T06:25:31;94812.09;;;23.68
24278;BMP280;12394;42.692;23.314;2023-06-26T06:27:57;94813.75;;;23.60
24278;BMP280;12394;42.692;23.314;2023-06-26T06:30:23;94813.63;;;23.49
24278;BMP280;12394;42.692;23.314;2023-06-26T06:32:48;94815.09;;;23.50
24278;BMP280;12394;42.692;23.314;2023-06-26T06:35:19;94805.97;;;23.36
24278;BMP280;12394;42.692;23.314;2023-06-26T06:37:45;94804.25;;;23.33
24278;BMP280;12394;42.692;23.314;2023-06-26T06:40:11;94805.63;;;23.49
24278;BMP280;12394;42.692;23.314;2023-06-26T06:42:36;94810.31;;;23.60
24278;BMP280;12394;42.692;23.314;2023-06-26T06:45:03;94796.91;;;23.80
24278;BMP280;12394;42.692;23.314;2023-06-26T06:47:29;94807.00;;;24.02
24278;BMP280;12394;42.692;23.314;2023-06-26T06:49:54;94807.41;;;24.26
24278;BMP280;12394;42.692;23.314;2023-06-26T06:52:19;94800.94;;;24.38
24278;BMP280;12394;42.692;23.314;2023-06-26T06:54:56;94808.81;;;24.64
24278;BMP280;12394;42.692;23.314;2023-06-26T06:57:24;94804.25;;;24.81
24278;BMP280;12394;42.692;23.314;2023-06-26T06:59:50;94812.59;;;24.94
24278;BMP280;12394;42.692;23.314;2023-06-26T07:02:18;94799.44;;;24.91
24278;BMP280;12394;42.692;23.314;2023-06-26T07:04:44;94800.69;;;24.95
24278;BMP280;12394;42.692;23.314;2023-06-26T07:07:09;94804.81;;;24.96
24278;BMP280;12394;42.692;23.314;2023-06-26T07:09:38;94795.56;;;24.92
24278;BMP280;12394;42.692;23.314;2023-06-26T07:12:03;94800.69;;;24.95
24278;BMP280;12394;42.692;23.314;2023-06-26T07:14:29;94795.38;;;25.06
24278;BMP280;12394;42.692;23.314;2023-06-26T07:16:54;94788.31;;;25.31
24278;BMP280;12394;42.692;23.314;2023-06-26T07:19:20;94790.28;;;25.36
24278;BMP280;12394;42.692;23.314;2023-06-26T07:21:45;94808.81;;;25.45
24278;BMP280;12394;42.692;23.314;2023-06-26T07:24:11;94799.53;;;25.24
24278;BMP280;12394;42.692;23.314;2023-06-26T07:26:36;94790.47;;;24.94
24278;BMP280;12394;42.692;23.314;2023-06-26T07:29:02;94799.47;;;24.96
24278;BMP280;12394;42.692;23.314;2023-06-26T07:31:28;94794.59;;;24.95
24278;BMP280;12394;42.692;23.314;2023-06-26T07:33:53;94797.63;;;24.65
24278;BMP280;12394;42.692;23.314;2023-06-26T07:36:18;94789.84;;;24.67
24278;BMP280;12394;42.692;23.314;2023-06-26T07:38:44;94792.25;;;24.60
24278;BMP280;12394;42.692;23.314;2023-06-26T07:41:09;94802.06;;;24.74
24278;BMP280;12394;42.692;23.314;2023-06-26T07:43:35;94797.50;;;24.91
24278;BMP280;12394;42.692;23.314;2023-06-26T07:46:00;94801.94;;;25.11
24278;BMP280;12394;42.692;23.314;2023-06-26T07:48:25;94795.94;;;25.60
24278;BMP280;12394;42.692;23.314;2023-06-26T07:50:51;94798.56;;;26.27
24278;BMP280;12394;42.692;23.314;2023-06-26T07:53:17;94791.59;;;26.71
24278;BMP280;12394;42.692;23.314;2023-06-26T07:55:42;94796.44;;;26.89
24278;BMP280;12394;42.692;23.314;2023-06-26T07:58:08;94790.38;;;27.59
24278;BMP280;12394;42.692;23.314;2023-06-26T08:00:33;94797.13;;;28.01
24278;BMP280;12394;42.692;23.314;2023-06-26T08:02:59;94795.81;;;28.38
24278;BMP280;12394;42.692;23.314;2023-06-26T08:05:24;94776.53;;;28.34
24278;BMP280;12394;42.692;23.314;2023-06-26T08:07:50;94794.31;;;27.88
24278;BMP280;12394;42.692;23.314;2023-06-26T08:10:15;94795.38;;;27.79
24278;BMP280;12394;42.692;23.314;2023-06-26T08:12:41;94790.06;;;27.33
24278;BMP280;12394;42.692;23.314;2023-06-26T08:15:08;94791.09;;;26.72
24278;BMP280;12394;42.692;23.314;2023-06-26T08:17:35;94795.63;;;26.36
24278;BMP280;12394;42.692;23.314;2023-06-26T08:20:01;94793.69;;;26.09
24278;BMP280;12394;42.692;23.314;2023-06-26T08:22:26;94798.66;;;26.79
24278;BMP280;12394;42.692;23.314;2023-06-26T08:24:52;94789.09;;;27.30
24278;BMP280;12394;42.692;23.314;2023-06-26T08:27:17;94784.66;;;26.97
24278;BMP280;12394;42.692;23.314;2023-06-26T08:29:43;94785.69;;;26.89
24278;BMP280;12394;42.692;23.314;2023-06-26T08:32:08;94794.34;;;27.12
24278;BMP280;12394;42.692;23.314;2023-06-26T08:34:33;94783.81;;;27.19
24278;BMP280;12394;42.692;23.314;2023-06-26T08:36:59;94792.38;;;28.37
24278;BMP280;12394;42.692;23.314;2023-06-26T08:39:24;94799.47;;;29.21
24278;BMP280;12394;42.692;23.314;2023-06-26T08:41:50;94785.59;;;30.38
24278;BMP280;12394;42.692;23.314;2023-06-26T08:44:16;94786.66;;;31.09
24278;BMP280;12394;42.692;23.314;2023-06-26T08:46:43;94790.34;;;30.32
24278;BMP280;12394;42.692;23.314;2023-06-26T08:51:47;94785.28;;;30.29
24278;BMP280;12394;42.692;23.314;2023-06-26T08:54:15;94786.22;;;29.86
24278;BMP280;12394;42.692;23.314;2023-06-26T08:56:44;94793.22;;;29.63
24278;BMP280;12394;42.692;23.314;2023-06-26T08:59:11;94769.22;;;29.28
24278;BMP280;12394;42.692;23.314;2023-06-26T09:01:40;94786.91;;;29.92
24278;BMP280;12394;42.692;23.314;2023-06-26T09:04:06;94776.97;;;30.53
24278;BMP280;12394;42.692;23.314;2023-06-26T09:06:32;94779.53;;;31.94
24278;BMP280;12394;42.692;23.314;2023-06-26T09:08:58;94775.69;;;33.18
24278;BMP280;12394;42.692;23.314;2023-06-26T09:11:23;94775.78;;;34.09
24278;BMP280;12394;42.692;23.314;2023-06-26T09:13:49;94781.72;;;33.55
24278;BMP280;12394;42.692;23.314;2023-06-26T09:16:14;94773.31;;;32.63
24278;BMP280;12394;42.692;23.314;2023-06-26T09:18:42;94775.47;;;32.29
24278;BMP280;12394;42.692;23.314;2023-06-26T09:21:11;94771.81;;;32.27
24278;BMP280;12394;42.692;23.314;2023-06-26T09:23:36;94769.81;;;33.65
24278;BMP280;12394;42.692;23.314;2023-06-26T09:26:05;94780.75;;;35.46
24278;BMP280;12394;42.692;23.314;2023-06-26T09:28:34;94774.28;;;35.91
24278;BMP280;12394;42.692;23.314;2023-06-26T09:31:04;94778.16;;;35.80
24278;BMP280;12394;42.692;23.314;2023-06-26T09:33:37;94773.31;;;35.96
24278;BMP280;12394;42.692;23.314;2023-06-26T09:36:18;94775.66;;;35.17
24278;BMP280;12394;42.692;23.314;2023-06-26T09:38:44;94771.44;;;34.29
24278;BMP280;12394;42.692;23.314;2023-06-26T09:41:10;94768.59;;;35.14
24278;BMP280;12394;42.692;23.314;2023-06-26T09:43:45;94769.94;;;34.35
24278;BMP280;12394;42.692;23.314;2023-06-26T09:46:15;94767.75;;;32.77
24278;BMP280;12394;42.692;23.314;2023-06-26T09:48:41;94782.03;;;32.41
24278;BMP280;12394;42.692;23.314;2023-06-26T09:51:07;94767.66;;;33.86
24278;BMP280;12394;42.692;23.314;2023-06-26T09:53:35;94765.06;;;33.35
24278;BMP280;12394;42.692;23.314;2023-06-26T09:56:05;94774.25;;;35.41
24278;BMP280;12394;42.692;23.314;2023-06-26T09:58:31;94772.81;;;35.90
24278;BMP280;12394;42.692;23.314;2023-06-26T10:00:57;94771.78;;;34.25
24278;BMP280;12394;42.692;23.314;2023-06-26T10:03:23;94779.84;;;32.40
24278;BMP280;12394;42.692;23.314;2023-06-26T10:05:49;94773.38;;;31.31
24278;BMP280;12394;42.692;23.314;2023-06-26T10:08:16;94763.88;;;30.70
24278;BMP280;12394;42.692;23.314;2023-06-26T10:10:43;94766.59;;;30.57
24278;BMP280;12394;42.692;23.314;2023-06-26T10:13:21;94752.41;;;29.85
24278;BMP280;12394;42.692;23.314;2023-06-26T10:15:47;94757.78;;;29.72
24278;BMP280;12394;42.692;23.314;2023-06-26T10:18:16;94758.44;;;29.28
24278;BMP280;12394;42.692;23.314;2023-06-26T10:20:42;94756.69;;;28.80
24278;BMP280;12394;42.692;23.314;2023-06-26T10:23:10;94752.75;;;28.38
24278;BMP280;12394;42.692;23.314;2023-06-26T10:25:37;94769.16;;;28.15
24278;BMP280;12394;42.692;23.314;2023-06-26T10:28:07;94765.34;;;27.75
24278;BMP280;12394;42.692;23.314;2023-06-26T10:30:34;94762.84;;;27.48
24278;BMP280;12394;42.692;23.314;2023-06-26T10:33:02;94760.09;;;27.23
24278;BMP280;12394;42.692;23.314;2023-06-26T10:35:30;94747.84;;;26.87
24278;BMP280;12394;42.692;23.314;2023-06-26T10:38:03;94762.25;;;26.89
24278;BMP280;12394;42.692;23.314;2023-06-26T10:40:43;94761.00;;;26.85
24278;BMP280;12394;42.692;23.314;2023-06-26T10:43:11;94755.69;;;26.79
24278;BMP280;12394;42.692;23.314;2023-06-26T10:45:43;94753.78;;;26.69
24278;BMP280;12394;42.692;23.314;2023-06-26T10:48:09;94755.97;;;26.70
24278;BMP280;12394;42.692;23.314;2023-06-26T10:50:34;94752.78;;;26.72
24278;BMP280;12394;42.692;23.314;2023-06-26T10:53:10;94750.91;;;26.55
24278;BMP280;12394;42.692;23.314;2023-06-26T10:55:37;94754.09;;;26.48
24278;BMP280;12394;42.692;23.314;2023-06-26T10:58:03;94747.00;;;26.57
24278;BMP280;12394;42.692;23.314;2023-06-26T11:00:28;94739.13;;;26.75
24278;BMP280;12394;42.692;23.314;2023-06-26T11:02:54;94742.00;;;26.88
24278;BMP280;12394;42.692;23.314;2023-06-26T11:05:27;94749.97;;;26.99
24278;BMP280;12394;42.692;23.314;2023-06-26T11:08:09;94731.94;;;26.94
24278;BMP280;12394;42.692;23.314;2023-06-26T11:10:53;94742.28;;;27.20
24278;BMP280;12394;42.692;23.314;2023-06-26T11:13:20;94731.38;;;27.42
24278;BMP280;12394;42.692;23.314;2023-06-26T11:15:49;94744.66;;;27.65
24278;BMP280;12394;42.692;23.314;2023-06-26T11:18:16;94741.22;;;27.64
24278;BMP280;12394;42.692;23.314;2023-06-26T11:20:41;94735.63;;;27.62
24278;BMP280;12394;42.692;23.314;2023-06-26T11:23:11;94741.13;;;27.46
24278;BMP280;12394;42.692;23.314;2023-06-26T11:25:38;94741.16;;;27.40
24278;BMP280;12394;42.692;23.314;2023-06-26T11:28:04;94740.53;;;27.28
24278;BMP280;12394;42.692;23.314;2023-06-26T11:30:31;94719.50;;;26.97
24278;BMP280;12394;42.692;23.314;2023-06-26T11:33:09;94731.75;;;26.81
24278;BMP280;12394;42.692;23.314;2023-06-26T11:35:35;94736.16;;;26.79
24278;BMP280;12394;42.692;23.314;2023-06-26T11:38:02;94732.31;;;26.69
24278;BMP280;12394;42.692;23.314;2023-06-26T11:40:35;94742.03;;;26.77
24278;BMP280;12394;42.692;23.314;2023-06-26T11:43:01;94726.88;;;26.85
24278;BMP280;12394;42.692;23.314;2023-06-26T11:45:29;94728.59;;;26.77
24278;BMP280;12394;42.692;23.314;2023-06-26T11:47:56;94726.91;;;26.80
24278;BMP280;12394;42.692;23.314;2023-06-26T11:50:22;94723.44;;;26.90
24278;BMP280;12394;42.692;23.314;2023-06-26T11:52:55;94724.47;;;27.17
24278;BMP280;12394;42.692;23.314;2023-06-26T11:55:22;94720.84;;;27.44
24278;BMP280;12394;42.692;23.314;2023-06-26T11:57:52;94727.16;;;27.53
24278;BMP280;12394;42.692;23.314;2023-06-26T12:00:18;94709.78;;;27.54
24278;BMP280;12394;42.692;23.314;2023-06-26T12:02:45;94725.72;;;27.76
24278;BMP280;12394;42.692;23.314;2023-06-26T12:05:12;94730.22;;;27.92
24278;BMP280;12394;42.692;23.314;2023-06-26T12:07:38;94714.09;;;27.92
24278;BMP280;12394;42.692;23.314;2023-06-26T12:10:04;94722.69;;;28.09
24278;BMP280;12394;42.692;23.314;2023-06-26T12:12:31;94715.50;;;28.42
24278;BMP280;12394;42.692;23.314;2023-06-26T12:14:58;94717.69;;;28.62
24278;BMP280;12394;42.692;23.314;2023-06-26T12:17:25;94723.22;;;28.51
24278;BMP280;12394;42.692;23.314;2023-06-26T12:19:51;94719.19;;;28.20
24278;BMP280;12394;42.692;23.314;2023-06-26T12:22:17;94724.38;;;28.37
24278;BMP280;12394;42.692;23.314;2023-06-26T12:24:44;94719.78;;;28.32
24278;BMP280;12394;42.692;23.314;2023-06-26T12:27:11;94725.28;;;27.72
24278;BMP280;12394;42.692;23.314;2023-06-26T12:29:40;94709.28;;;27.25
24278;BMP280;12394;42.692;23.314;2023-06-26T12:32:09;94726.03;;;27.07
24278;BMP280;12394;42.692;23.314;2023-06-26T12:34:37;94719.78;;;26.88
24278;BMP280;12394;42.692;23.314;2023-06-26T12:37:06;94716.44;;;26.71
24278;BMP280;12394;42.692;23.314;2023-06-26T12:39:54;94722.41;;;26.52
24278;BMP280;12394;42.692;23.314;2023-06-26T12:42:27;94720.50;;;26.31
24278;BMP280;12394;42.692;23.314;2023-06-26T12:44:54;94725.66;;;26.29
24278;BMP280;12394;42.692;23.314;2023-06-26T12:47:28;94726.88;;;26.28
24278;BMP280;12394;42.692;23.314;2023-06-26T12:49:54;94726.78;;;26.50
24278;BMP280;12394;42.692;23.314;2023-06-26T12:52:20;94721.22;;;26.42
24278;BMP280;12394;42.692;23.314;2023-06-26T12:54:51;94722.41;;;26.47
24278;BMP280;12394;42.692;23.314;2023-06-26T12:57:16;94731.59;;;26.63
24278;BMP280;12394;42.692;23.314;2023-06-26T12:59:42;94729.94;;;26.48
24278;BMP280;12394;42.692;23.314;2023-06-26T13:02:09;94719.28;;;26.37
24278;BMP280;12394;42.692;23.314;2023-06-26T13:04:36;94725.56;;;26.51
24278;BMP280;12394;42.692;23.314;2023-06-26T13:07:05;94726.75;;;26.55
24278;BMP280;12394;42.692;23.314;2023-06-26T13:09:32;94724.84;;;26.50
24278;BMP280;12394;42.692;23.314;2023-06-26T13:11:59;94704.53;;;26.61
24278;BMP280;12394;42.692;23.314;2023-06-26T13:14:24;94705.19;;;26.78
24278;BMP280;12394;42.692;23.314;2023-06-26T13:16:49;94728.28;;;26.97
24278;BMP280;12394;42.692;23.314;2023-06-26T13:19:15;94729.94;;;27.06
24278;BMP280;12394;42.692;23.314;2023-06-26T13:21:40;94732.38;;;27.04
24278;BMP280;12394;42.692;23.314;2023-06-26T13:24:07;94724.66;;;26.89
24278;BMP280;12394;42.692;23.314;2023-06-26T13:26:32;94712.97;;;26.87
24278;BMP280;12394;42.692;23.314;2023-06-26T13:28:58;94722.00;;;26.84
24278;BMP280;12394;42.692;23.314;2023-06-26T13:31:24;94720.75;;;26.85
24278;BMP280;12394;42.692;23.314;2023-06-26T13:33:49;94718.91;;;27.10
24278;BMP280;12394;42.692;23.314;2023-06-26T13:36:16;94725.22;;;27.48
24278;BMP280;12394;42.692;23.314;2023-06-26T13:38:41;94697.09;;;27.54
24278;BMP280;12394;42.692;23.314;2023-06-26T13:41:07;94719.34;;;27.79
24278;BMP280;12394;42.692;23.314;2023-06-26T13:43:32;94714.03;;;27.73
24278;BMP280;12394;42.692;23.314;2023-06-26T13:45:58;94721.34;;;27.73
24278;BMP280;12394;42.692;23.314;2023-06-26T13:48:23;94732.53;;;27.53
24278;BMP280;12394;42.692;23.314;2023-06-26T13:50:52;94723.19;;;27.29
24278;BMP280;12394;42.692;23.314;2023-06-26T13:53:18;94730.28;;;27.21
24278;BMP280;12394;42.692;23.314;2023-06-26T13:55:43;94734.84;;;27.02
24278;BMP280;12394;42.692;23.314;2023-06-26T13:58:09;94730.34;;;26.69
24278;BMP280;12394;42.692;23.314;2023-06-26T14:00:35;94734.44;;;26.29
24278;BMP280;12394;42.692;23.314;2023-06-26T14:03:02;94728.34;;;26.18